Hlavní strana
METAR-TAF:

METAR-TAF

Letiště :

Oak Ridge, Tennessee, Spojené státy americké

zeměpisná šířka: 36-01-22N, zeměpisná délka: 084-14W, výška: 279 m

Aktuální stav počasí

Zpráva byla vytvořena před 9 minutami, v 19:53 UTC
Bezvětří
Teplota 13°C
Vlhkost vzduchu 94%
Tlak 1018 hPa
Viditelnost: 6.4 km
Zataženo ve výšce 1000 ft
slabý déšť, kouřmo

METAR: KOQT 181953Z AUTO 00000KT 4SM -RA BR OVC010 13/12 A3005 RMK AO2 CIG 008V013 SLP175 P0012 T01330122

Čas: 15:02 (20:02 UTC)


TAF: chybějící

Stav a předpovědi počasí z více než 4 000 letišť (zprávy METAR a TAF).

Červené a žluté tečky na mapě představují dostupné meteorologické stanice.

Když kurzor umístíte na tečku, zobrazí se název stanice.

Pak kliknutím zobrazíte stav a předpověď počasí.

Chcete-li změnit mapu, kliknutím na zelené tlačítko se znaménkem +mapu přiblížíte, kliknutím na zelené tlačítko se znaménkem – mapu oddálíte a kliknutím na zelené šipky přejdete na sousední mapy.


METAR-TAF: